sensor_id;sensor_type;location;lat;lon;timestamp;temperature;humidity
37322;DHT22;23697;48.684;9.032;2023-05-01T00:00:49;8.90;81.10
37322;DHT22;23697;48.684;9.032;2023-05-01T00:03:16;8.90;81.20
37322;DHT22;23697;48.684;9.032;2023-05-01T00:05:43;8.80;81.20
37322;DHT22;23697;48.684;9.032;2023-05-01T00:08:10;8.80;81.30
37322;DHT22;23697;48.684;9.032;2023-05-01T00:10:36;8.80;81.40
37322;DHT22;23697;48.684;9.032;2023-05-01T00:13:03;8.70;81.50
37322;DHT22;23697;48.684;9.032;2023-05-01T00:15:30;8.70;81.70
37322;DHT22;23697;48.684;9.032;2023-05-01T00:17:59;8.70;81.70
37322;DHT22;23697;48.684;9.032;2023-05-01T00:20:26;8.60;81.80
37322;DHT22;23697;48.684;9.032;2023-05-01T00:22:53;8.60;81.80
37322;DHT22;23697;48.684;9.032;2023-05-01T00:25:19;8.60;82.00
37322;DHT22;23697;48.684;9.032;2023-05-01T00:27:46;8.60;82.10
37322;DHT22;23697;48.684;9.032;2023-05-01T00:30:13;8.60;82.30
37322;DHT22;23697;48.684;9.032;2023-05-01T00:32:40;8.50;82.40
37322;DHT22;23697;48.684;9.032;2023-05-01T00:35:08;8.50;82.50
37322;DHT22;23697;48.684;9.032;2023-05-01T00:37:35;8.50;82.60
37322;DHT22;23697;48.684;9.032;2023-05-01T00:40:03;8.50;82.70
37322;DHT22;23697;48.684;9.032;2023-05-01T00:42:33;8.50;82.80
37322;DHT22;23697;48.684;9.032;2023-05-01T00:44:59;8.50;82.90
37322;DHT22;23697;48.684;9.032;2023-05-01T00:47:26;8.50;83.10
37322;DHT22;23697;48.684;9.032;2023-05-01T00:49:52;8.50;83.20
37322;DHT22;23697;48.684;9.032;2023-05-01T00:52:21;8.50;83.20
37322;DHT22;23697;48.684;9.032;2023-05-01T00:54:49;8.60;83.30
37322;DHT22;23697;48.684;9.032;2023-05-01T00:57:16;8.60;83.30
37322;DHT22;23697;48.684;9.032;2023-05-01T00:59:43;8.60;83.30
37322;DHT22;23697;48.684;9.032;2023-05-01T01:02:10;8.60;83.30
37322;DHT22;23697;48.684;9.032;2023-05-01T01:04:37;8.70;83.30
37322;DHT22;23697;48.684;9.032;2023-05-01T01:07:06;8.70;83.10
37322;DHT22;23697;48.684;9.032;2023-05-01T01:09:40;8.70;83.00
37322;DHT22;23697;48.684;9.032;2023-05-01T01:12:10;8.60;83.00
37322;DHT22;23697;48.684;9.032;2023-05-01T01:14:49;8.60;83.00
37322;DHT22;23697;48.684;9.032;2023-05-01T01:17:20;8.70;83.00
37322;DHT22;23697;48.684;9.032;2023-05-01T01:22:50;8.80;83.00
37322;DHT22;23697;48.684;9.032;2023-05-01T01:25:43;8.80;83.00
37322;DHT22;23697;48.684;9.032;2023-05-01T01:28:17;8.80;83.00
37322;DHT22;23697;48.684;9.032;2023-05-01T01:31:02;8.90;82.80
37322;DHT22;23697;48.684;9.032;2023-05-01T01:33:42;8.90;82.80
37322;DHT22;23697;48.684;9.032;2023-05-01T01:36:16;8.90;82.80
37322;DHT22;23697;48.684;9.032;2023-05-01T01:38:44;9.00;82.80
37322;DHT22;23697;48.684;9.032;2023-05-01T01:41:12;9.00;82.80
37322;DHT22;23697;48.684;9.032;2023-05-01T01:43:41;9.00;82.90
37322;DHT22;23697;48.684;9.032;2023-05-01T01:46:10;9.00;83.00
37322;DHT22;23697;48.684;9.032;2023-05-01T01:48:37;9.00;82.90
37322;DHT22;23697;48.684;9.032;2023-05-01T01:51:10;9.00;82.50
37322;DHT22;23697;48.684;9.032;2023-05-01T01:53:38;9.00;82.50
37322;DHT22;23697;48.684;9.032;2023-05-01T01:56:06;9.10;82.50
37322;DHT22;23697;48.684;9.032;2023-05-01T01:58:34;9.10;82.50
37322;DHT22;23697;48.684;9.032;2023-05-01T02:01:01;9.00;82.60
37322;DHT22;23697;48.684;9.032;2023-05-01T02:03:29;9.10;82.60
37322;DHT22;23697;48.684;9.032;2023-05-01T02:05:56;9.00;82.60
37322;DHT22;23697;48.684;9.032;2023-05-01T02:08:25;9.10;82.70
37322;DHT22;23697;48.684;9.032;2023-05-01T02:10:53;9.10;82.80
37322;DHT22;23697;48.684;9.032;2023-05-01T02:13:23;9.00;82.90
37322;DHT22;23697;48.684;9.032;2023-05-01T02:15:52;9.00;83.00
37322;DHT22;23697;48.684;9.032;2023-05-01T02:18:20;9.00;83.10
37322;DHT22;23697;48.684;9.032;2023-05-01T02:20:47;9.10;83.20
37322;DHT22;23697;48.684;9.032;2023-05-01T02:23:14;9.00;83.30
37322;DHT22;23697;48.684;9.032;2023-05-01T02:25:42;9.00;83.30
37322;DHT22;23697;48.684;9.032;2023-05-01T02:28:11;9.10;83.40
37322;DHT22;23697;48.684;9.032;2023-05-01T02:30:38;9.10;83.50
37322;DHT22;23697;48.684;9.032;2023-05-01T02:33:05;9.00;83.50
37322;DHT22;23697;48.684;9.032;2023-05-01T02:35:37;9.00;83.50
37322;DHT22;23697;48.684;9.032;2023-05-01T02:38:04;9.00;83.60
37322;DHT22;23697;48.684;9.032;2023-05-01T02:40:30;9.00;83.60
37322;DHT22;23697;48.684;9.032;2023-05-01T02:42:58;9.00;83.70
37322;DHT22;23697;48.684;9.032;2023-05-01T02:45:26;9.00;83.70
37322;DHT22;23697;48.684;9.032;2023-05-01T02:47:55;9.00;83.80
37322;DHT22;23697;48.684;9.032;2023-05-01T02:50:21;9.00;83.90
37322;DHT22;23697;48.684;9.032;2023-05-01T02:52:48;9.00;83.90
37322;DHT22;23697;48.684;9.032;2023-05-01T02:55:15;9.00;83.90
37322;DHT22;23697;48.684;9.032;2023-05-01T02:57:42;9.00;83.90
37322;DHT22;23697;48.684;9.032;2023-05-01T03:00:11;8.90;83.90
37322;DHT22;23697;48.684;9.032;2023-05-01T03:02:38;8.90;83.90
37322;DHT22;23697;48.684;9.032;2023-05-01T03:05:05;8.90;83.90
37322;DHT22;23697;48.684;9.032;2023-05-01T03:07:32;8.90;83.90
37322;DHT22;23697;48.684;9.032;2023-05-01T03:09:59;8.90;84.00
37322;DHT22;23697;48.684;9.032;2023-05-01T03:12:27;8.90;84.00
37322;DHT22;23697;48.684;9.032;2023-05-01T03:14:54;8.90;84.10
37322;DHT22;23697;48.684;9.032;2023-05-01T03:17:22;8.90;84.00
37322;DHT22;23697;48.684;9.032;2023-05-01T03:19:49;8.90;84.10
37322;DHT22;23697;48.684;9.032;2023-05-01T03:22:15;9.00;84.10
37322;DHT22;23697;48.684;9.032;2023-05-01T03:24:42;9.00;84.10
37322;DHT22;23697;48.684;9.032;2023-05-01T03:27:09;9.00;84.20
37322;DHT22;23697;48.684;9.032;2023-05-01T03:29:36;9.00;84.20
37322;DHT22;23697;48.684;9.032;2023-05-01T03:32:03;8.90;84.20
37322;DHT22;23697;48.684;9.032;2023-05-01T03:34:31;9.00;84.30
37322;DHT22;23697;48.684;9.032;2023-05-01T03:36:58;9.00;84.30
37322;DHT22;23697;48.684;9.032;2023-05-01T03:39:25;8.90;84.30
37322;DHT22;23697;48.684;9.032;2023-05-01T03:41:52;9.00;84.40
37322;DHT22;23697;48.684;9.032;2023-05-01T03:44:18;9.00;84.50
37322;DHT22;23697;48.684;9.032;2023-05-01T03:46:45;9.00;84.50
37322;DHT22;23697;48.684;9.032;2023-05-01T03:49:11;9.00;84.60
37322;DHT22;23697;48.684;9.032;2023-05-01T03:51:39;9.00;84.60
37322;DHT22;23697;48.684;9.032;2023-05-01T03:54:06;9.00;84.60
37322;DHT22;23697;48.684;9.032;2023-05-01T03:56:33;9.00;84.60
37322;DHT22;23697;48.684;9.032;2023-05-01T03:59:01;9.00;84.60
37322;DHT22;23697;48.684;9.032;2023-05-01T04:01:27;9.00;84.60
37322;DHT22;23697;48.684;9.032;2023-05-01T04:03:54;9.00;84.70
37322;DHT22;23697;48.684;9.032;2023-05-01T04:06:20;9.00;84.70
37322;DHT22;23697;48.684;9.032;2023-05-01T04:08:49;9.00;84.70
37322;DHT22;23697;48.684;9.032;2023-05-01T04:11:16;9.00;84.70
37322;DHT22;23697;48.684;9.032;2023-05-01T04:13:42;9.00;84.70
37322;DHT22;23697;48.684;9.032;2023-05-01T04:16:09;9.00;84.70
37322;DHT22;23697;48.684;9.032;2023-05-01T04:18:36;9.00;84.80
37322;DHT22;23697;48.684;9.032;2023-05-01T04:21:03;9.10;84.80
37322;DHT22;23697;48.684;9.032;2023-05-01T04:23:30;9.00;84.70
37322;DHT22;23697;48.684;9.032;2023-05-01T04:25:58;9.10;84.70
37322;DHT22;23697;48.684;9.032;2023-05-01T04:28:24;9.10;84.80
37322;DHT22;23697;48.684;9.032;2023-05-01T04:30:52;9.10;84.80
37322;DHT22;23697;48.684;9.032;2023-05-01T04:33:18;9.10;84.80
37322;DHT22;23697;48.684;9.032;2023-05-01T04:35:45;9.10;84.90
37322;DHT22;23697;48.684;9.032;2023-05-01T04:38:12;9.10;84.90
37322;DHT22;23697;48.684;9.032;2023-05-01T04:40:38;9.10;84.90
37322;DHT22;23697;48.684;9.032;2023-05-01T04:43:06;9.10;84.90
37322;DHT22;23697;48.684;9.032;2023-05-01T04:45:33;9.10;84.80
37322;DHT22;23697;48.684;9.032;2023-05-01T04:48:00;9.10;84.80
37322;DHT22;23697;48.684;9.032;2023-05-01T04:50:26;9.20;84.90
37322;DHT22;23697;48.684;9.032;2023-05-01T04:52:58;9.20;84.90
37322;DHT22;23697;48.684;9.032;2023-05-01T04:55:25;9.20;85.00
37322;DHT22;23697;48.684;9.032;2023-05-01T04:57:52;9.20;85.00
37322;DHT22;23697;48.684;9.032;2023-05-01T05:00:23;9.20;85.10
37322;DHT22;23697;48.684;9.032;2023-05-01T05:02:50;9.20;85.20
37322;DHT22;23697;48.684;9.032;2023-05-01T05:05:16;9.30;85.30
37322;DHT22;23697;48.684;9.032;2023-05-01T05:07:43;9.30;85.40
37322;DHT22;23697;48.684;9.032;2023-05-01T05:10:09;9.30;85.50
37322;DHT22;23697;48.684;9.032;2023-05-01T05:12:36;9.30;85.60
37322;DHT22;23697;48.684;9.032;2023-05-01T05:15:03;9.30;85.70
37322;DHT22;23697;48.684;9.032;2023-05-01T05:17:31;9.30;85.90
37322;DHT22;23697;48.684;9.032;2023-05-01T05:19:58;9.40;86.00
37322;DHT22;23697;48.684;9.032;2023-05-01T05:22:24;9.40;86.00
37322;DHT22;23697;48.684;9.032;2023-05-01T05:24:52;9.40;86.10
37322;DHT22;23697;48.684;9.032;2023-05-01T05:27:19;9.40;86.20
37322;DHT22;23697;48.684;9.032;2023-05-01T05:29:45;9.40;86.20
37322;DHT22;23697;48.684;9.032;2023-05-01T05:32:13;9.40;86.30
37322;DHT22;23697;48.684;9.032;2023-05-01T05:34:41;9.40;86.30
37322;DHT22;23697;48.684;9.032;2023-05-01T05:37:08;9.40;86.40
37322;DHT22;23697;48.684;9.032;2023-05-01T05:39:35;9.50;86.40
37322;DHT22;23697;48.684;9.032;2023-05-01T05:42:02;9.50;86.50
37322;DHT22;23697;48.684;9.032;2023-05-01T05:44:29;9.50;86.50
37322;DHT22;23697;48.684;9.032;2023-05-01T05:46:57;9.50;86.50
37322;DHT22;23697;48.684;9.032;2023-05-01T05:49:25;9.60;86.60
37322;DHT22;23697;48.684;9.032;2023-05-01T05:51:53;9.60;86.60
37322;DHT22;23697;48.684;9.032;2023-05-01T05:54:20;9.60;86.60
37322;DHT22;23697;48.684;9.032;2023-05-01T05:56:47;9.70;86.60
37322;DHT22;23697;48.684;9.032;2023-05-01T05:59:13;9.70;86.30
37322;DHT22;23697;48.684;9.032;2023-05-01T06:01:40;9.70;86.10
37322;DHT22;23697;48.684;9.032;2023-05-01T06:04:07;9.80;86.10
37322;DHT22;23697;48.684;9.032;2023-05-01T06:06:33;9.90;86.20
37322;DHT22;23697;48.684;9.032;2023-05-01T06:09:01;10.00;86.20
37322;DHT22;23697;48.684;9.032;2023-05-01T06:11:28;10.10;86.10
37322;DHT22;23697;48.684;9.032;2023-05-01T06:13:55;10.20;86.00
37322;DHT22;23697;48.684;9.032;2023-05-01T06:16:22;10.40;85.90
37322;DHT22;23697;48.684;9.032;2023-05-01T06:18:49;10.40;85.60
37322;DHT22;23697;48.684;9.032;2023-05-01T06:21:16;10.50;85.30
37322;DHT22;23697;48.684;9.032;2023-05-01T06:23:43;10.50;85.10
37322;DHT22;23697;48.684;9.032;2023-05-01T06:26:11;10.50;84.90
37322;DHT22;23697;48.684;9.032;2023-05-01T06:28:38;10.50;84.50
37322;DHT22;23697;48.684;9.032;2023-05-01T06:31:04;10.50;84.00
37322;DHT22;23697;48.684;9.032;2023-05-01T06:33:31;10.50;83.80
37322;DHT22;23697;48.684;9.032;2023-05-01T06:35:58;10.60;83.90
37322;DHT22;23697;48.684;9.032;2023-05-01T06:38:25;10.60;83.70
37322;DHT22;23697;48.684;9.032;2023-05-01T06:40:52;10.60;83.50
37322;DHT22;23697;48.684;9.032;2023-05-01T06:43:20;10.60;83.40
37322;DHT22;23697;48.684;9.032;2023-05-01T06:45:46;10.60;83.50
37322;DHT22;23697;48.684;9.032;2023-05-01T06:48:13;10.60;83.10
37322;DHT22;23697;48.684;9.032;2023-05-01T06:50:40;10.60;82.80
37322;DHT22;23697;48.684;9.032;2023-05-01T06:53:07;10.60;83.20
37322;DHT22;23697;48.684;9.032;2023-05-01T06:55:33;10.70;83.40
37322;DHT22;23697;48.684;9.032;2023-05-01T06:58:00;10.70;83.20
37322;DHT22;23697;48.684;9.032;2023-05-01T07:00:30;10.90;83.60
37322;DHT22;23697;48.684;9.032;2023-05-01T07:02:56;11.10;83.60
37322;DHT22;23697;48.684;9.032;2023-05-01T07:05:23;11.20;83.10
37322;DHT22;23697;48.684;9.032;2023-05-01T07:07:50;11.30;82.50
37322;DHT22;23697;48.684;9.032;2023-05-01T07:10:17;11.50;82.30
37322;DHT22;23697;48.684;9.032;2023-05-01T07:12:43;11.60;81.60
37322;DHT22;23697;48.684;9.032;2023-05-01T07:15:10;11.60;81.50
37322;DHT22;23697;48.684;9.032;2023-05-01T07:17:40;11.60;81.60
37322;DHT22;23697;48.684;9.032;2023-05-01T07:20:07;11.60;81.40
37322;DHT22;23697;48.684;9.032;2023-05-01T07:22:34;11.60;81.40
37322;DHT22;23697;48.684;9.032;2023-05-01T07:25:01;11.60;81.40
37322;DHT22;23697;48.684;9.032;2023-05-01T07:27:28;11.70;81.50
37322;DHT22;23697;48.684;9.032;2023-05-01T07:29:54;11.70;80.90
37322;DHT22;23697;48.684;9.032;2023-05-01T07:32:21;11.70;80.90
37322;DHT22;23697;48.684;9.032;2023-05-01T07:34:49;11.80;81.30
37322;DHT22;23697;48.684;9.032;2023-05-01T07:37:17;12.00;81.10
37322;DHT22;23697;48.684;9.032;2023-05-01T07:39:44;12.00;81.30
37322;DHT22;23697;48.684;9.032;2023-05-01T07:42:10;12.10;81.00
37322;DHT22;23697;48.684;9.032;2023-05-01T07:44:37;12.10;80.70
37322;DHT22;23697;48.684;9.032;2023-05-01T07:47:04;12.10;80.90
37322;DHT22;23697;48.684;9.032;2023-05-01T07:49:33;12.10;80.60
37322;DHT22;23697;48.684;9.032;2023-05-01T07:52:02;12.10;80.30
37322;DHT22;23697;48.684;9.032;2023-05-01T07:54:29;12.10;80.60
37322;DHT22;23697;48.684;9.032;2023-05-01T07:56:56;12.10;80.90
37322;DHT22;23697;48.684;9.032;2023-05-01T07:59:24;12.20;81.00
37322;DHT22;23697;48.684;9.032;2023-05-01T08:01:50;12.20;80.60
37322;DHT22;23697;48.684;9.032;2023-05-01T08:04:17;12.20;80.70
37322;DHT22;23697;48.684;9.032;2023-05-01T08:06:46;12.20;79.60
37322;DHT22;23697;48.684;9.032;2023-05-01T08:09:14;12.10;80.50
37322;DHT22;23697;48.684;9.032;2023-05-01T08:11:44;12.10;80.30
37322;DHT22;23697;48.684;9.032;2023-05-01T08:14:20;12.20;80.90
37322;DHT22;23697;48.684;9.032;2023-05-01T08:16:46;12.40;80.40
37322;DHT22;23697;48.684;9.032;2023-05-01T08:19:18;12.60;80.50
37322;DHT22;23697;48.684;9.032;2023-05-01T08:21:45;12.80;80.00
37322;DHT22;23697;48.684;9.032;2023-05-01T08:24:11;13.00;79.40
37322;DHT22;23697;48.684;9.032;2023-05-01T08:26:40;13.10;79.10
37322;DHT22;23697;48.684;9.032;2023-05-01T08:29:06;13.20;78.30
37322;DHT22;23697;48.684;9.032;2023-05-01T08:31:33;13.30;77.40
37322;DHT22;23697;48.684;9.032;2023-05-01T08:34:01;13.40;77.70
37322;DHT22;23697;48.684;9.032;2023-05-01T08:36:28;13.50;75.90
37322;DHT22;23697;48.684;9.032;2023-05-01T08:38:57;13.60;77.10
37322;DHT22;23697;48.684;9.032;2023-05-01T08:41:24;13.80;77.10
37322;DHT22;23697;48.684;9.032;2023-05-01T08:43:53;14.10;76.60
37322;DHT22;23697;48.684;9.032;2023-05-01T08:46:24;14.20;75.80
37322;DHT22;23697;48.684;9.032;2023-05-01T08:48:54;14.30;73.30
37322;DHT22;23697;48.684;9.032;2023-05-01T08:51:23;14.30;72.60
37322;DHT22;23697;48.684;9.032;2023-05-01T08:53:51;14.50;74.00
37322;DHT22;23697;48.684;9.032;2023-05-01T08:56:18;14.60;72.80
37322;DHT22;23697;48.684;9.032;2023-05-01T08:58:46;14.50;72.50
37322;DHT22;23697;48.684;9.032;2023-05-01T09:01:15;14.60;73.20
37322;DHT22;23697;48.684;9.032;2023-05-01T09:03:42;14.50;71.40
37322;DHT22;23697;48.684;9.032;2023-05-01T09:06:10;14.60;73.00
37322;DHT22;23697;48.684;9.032;2023-05-01T09:08:37;14.70;71.40
37322;DHT22;23697;48.684;9.032;2023-05-01T09:11:04;14.90;73.00
37322;DHT22;23697;48.684;9.032;2023-05-01T09:13:31;15.00;71.00
37322;DHT22;23697;48.684;9.032;2023-05-01T09:15:58;15.20;71.10
37322;DHT22;23697;48.684;9.032;2023-05-01T09:18:27;15.30;71.10
37322;DHT22;23697;48.684;9.032;2023-05-01T09:20:53;15.50;67.80
37322;DHT22;23697;48.684;9.032;2023-05-01T09:23:20;15.60;69.70
37322;DHT22;23697;48.684;9.032;2023-05-01T09:25:47;15.70;68.60
37322;DHT22;23697;48.684;9.032;2023-05-01T09:28:14;15.90;69.90
37322;DHT22;23697;48.684;9.032;2023-05-01T09:30:41;15.80;64.30
37322;DHT22;23697;48.684;9.032;2023-05-01T09:33:08;16.00;67.70
37322;DHT22;23697;48.684;9.032;2023-05-01T09:35:53;16.10;67.30
37322;DHT22;23697;48.684;9.032;2023-05-01T09:38:21;16.10;66.80
37322;DHT22;23697;48.684;9.032;2023-05-01T09:40:48;16.10;65.70
37322;DHT22;23697;48.684;9.032;2023-05-01T09:43:22;16.20;66.80
37322;DHT22;23697;48.684;9.032;2023-05-01T09:45:58;16.10;66.40
37322;DHT22;23697;48.684;9.032;2023-05-01T09:48:24;16.20;65.90
37322;DHT22;23697;48.684;9.032;2023-05-01T09:50:53;16.20;64.70
37322;DHT22;23697;48.684;9.032;2023-05-01T09:53:32;16.20;65.80
37322;DHT22;23697;48.684;9.032;2023-05-01T09:55:59;16.40;65.00
37322;DHT22;23697;48.684;9.032;2023-05-01T09:58:26;16.40;63.00
37322;DHT22;23697;48.684;9.032;2023-05-01T10:00:53;16.40;64.70
37322;DHT22;23697;48.684;9.032;2023-05-01T10:03:20;16.60;59.60
37322;DHT22;23697;48.684;9.032;2023-05-01T10:05:46;16.50;59.60
37322;DHT22;23697;48.684;9.032;2023-05-01T10:08:14;16.60;62.40
37322;DHT22;23697;48.684;9.032;2023-05-01T10:10:41;16.60;59.20
37322;DHT22;23697;48.684;9.032;2023-05-01T10:13:11;16.60;60.20
37322;DHT22;23697;48.684;9.032;2023-05-01T10:15:38;16.70;61.40
37322;DHT22;23697;48.684;9.032;2023-05-01T10:18:06;16.70;61.60
37322;DHT22;23697;48.684;9.032;2023-05-01T10:20:32;16.90;62.70
37322;DHT22;23697;48.684;9.032;2023-05-01T10:22:59;16.90;62.20
37322;DHT22;23697;48.684;9.032;2023-05-01T10:25:28;17.00;62.30
37322;DHT22;23697;48.684;9.032;2023-05-01T10:27:54;17.10;61.50
37322;DHT22;23697;48.684;9.032;2023-05-01T10:30:22;17.10;59.50
37322;DHT22;23697;48.684;9.032;2023-05-01T10:32:51;17.10;59.90
37322;DHT22;23697;48.684;9.032;2023-05-01T10:35:18;17.10;61.50
37322;DHT22;23697;48.684;9.032;2023-05-01T10:37:46;17.30;62.30
37322;DHT22;23697;48.684;9.032;2023-05-01T10:43:15;17.30;58.70
37322;DHT22;23697;48.684;9.032;2023-05-01T10:45:43;17.20;62.30
37322;DHT22;23697;48.684;9.032;2023-05-01T10:48:10;17.10;60.40
37322;DHT22;23697;48.684;9.032;2023-05-01T10:53:22;16.90;61.90
37322;DHT22;23697;48.684;9.032;2023-05-01T10:55:49;16.70;62.10
37322;DHT22;23697;48.684;9.032;2023-05-01T11:04:03;16.20;64.10
37322;DHT22;23697;48.684;9.032;2023-05-01T11:06:32;16.00;63.90
37322;DHT22;23697;48.684;9.032;2023-05-01T11:11:56;15.90;62.20
37322;DHT22;23697;48.684;9.032;2023-05-01T11:14:23;15.80;62.40
37322;DHT22;23697;48.684;9.032;2023-05-01T11:16:50;15.60;63.00
37322;DHT22;23697;48.684;9.032;2023-05-01T11:22:13;15.40;65.70
37322;DHT22;23697;48.684;9.032;2023-05-01T11:24:40;15.30;65.70
37322;DHT22;23697;48.684;9.032;2023-05-01T11:30:06;15.10;68.80
37322;DHT22;23697;48.684;9.032;2023-05-01T11:32:33;15.10;70.50
37322;DHT22;23697;48.684;9.032;2023-05-01T11:35:00;15.10;70.40
37322;DHT22;23697;48.684;9.032;2023-05-01T11:37:41;15.00;71.30
37322;DHT22;23697;48.684;9.032;2023-05-01T11:40:17;14.90;72.00
37322;DHT22;23697;48.684;9.032;2023-05-01T11:42:45;14.90;72.70
37322;DHT22;23697;48.684;9.032;2023-05-01T11:45:12;14.90;74.10
37322;DHT22;23697;48.684;9.032;2023-05-01T11:47:39;14.90;74.50
37322;DHT22;23697;48.684;9.032;2023-05-01T11:50:06;14.80;74.20
37322;DHT22;23697;48.684;9.032;2023-05-01T11:52:44;14.70;74.20
37322;DHT22;23697;48.684;9.032;2023-05-01T11:55:13;14.70;74.60
37322;DHT22;23697;48.684;9.032;2023-05-01T11:57:57;14.70;75.00
37322;DHT22;23697;48.684;9.032;2023-05-01T12:00:46;14.70;74.60
37322;DHT22;23697;48.684;9.032;2023-05-01T12:03:51;14.80;75.00
37322;DHT22;23697;48.684;9.032;2023-05-01T12:06:18;14.90;75.70
37322;DHT22;23697;48.684;9.032;2023-05-01T12:08:47;14.90;75.90
37322;DHT22;23697;48.684;9.032;2023-05-01T12:11:16;15.00;76.20
37322;DHT22;23697;48.684;9.032;2023-05-01T12:13:45;15.10;76.20
37322;DHT22;23697;48.684;9.032;2023-05-01T12:16:14;15.30;76.40
37322;DHT22;23697;48.684;9.032;2023-05-01T12:18:50;15.30;75.00
37322;DHT22;23697;48.684;9.032;2023-05-01T12:21:17;15.40;74.80
37322;DHT22;23697;48.684;9.032;2023-05-01T12:23:44;15.40;74.10
37322;DHT22;23697;48.684;9.032;2023-05-01T12:26:16;15.30;73.90
37322;DHT22;23697;48.684;9.032;2023-05-01T12:28:52;15.30;73.90
37322;DHT22;23697;48.684;9.032;2023-05-01T12:31:18;15.20;73.30
37322;DHT22;23697;48.684;9.032;2023-05-01T12:33:51;15.10;72.40
37322;DHT22;23697;48.684;9.032;2023-05-01T12:36:18;15.00;72.30
37322;DHT22;23697;48.684;9.032;2023-05-01T12:39:00;14.90;72.30
37322;DHT22;23697;48.684;9.032;2023-05-01T12:41:36;14.70;71.90
37322;DHT22;23697;48.684;9.032;2023-05-01T12:44:19;14.70;74.40
37322;DHT22;23697;48.684;9.032;2023-05-01T12:46:52;14.60;75.80
37322;DHT22;23697;48.684;9.032;2023-05-01T12:49:19;14.40;77.30
37322;DHT22;23697;48.684;9.032;2023-05-01T12:51:48;14.30;77.70
37322;DHT22;23697;48.684;9.032;2023-05-01T12:54:26;14.30;77.60
37322;DHT22;23697;48.684;9.032;2023-05-01T12:57:04;14.10;77.90
37322;DHT22;23697;48.684;9.032;2023-05-01T12:59:38;14.10;78.70
37322;DHT22;23697;48.684;9.032;2023-05-01T13:04:47;13.90;81.20
37322;DHT22;23697;48.684;9.032;2023-05-01T13:07:15;13.90;81.90
37322;DHT22;23697;48.684;9.032;2023-05-01T13:09:49;13.80;82.30
37322;DHT22;23697;48.684;9.032;2023-05-01T13:12:18;13.80;82.80
37322;DHT22;23697;48.684;9.032;2023-05-01T13:14:44;13.70;83.10
37322;DHT22;23697;48.684;9.032;2023-05-01T13:17:12;13.60;83.60
37322;DHT22;23697;48.684;9.032;2023-05-01T13:19:51;13.60;83.80
37322;DHT22;23697;48.684;9.032;2023-05-01T13:22:18;13.50;83.90
37322;DHT22;23697;48.684;9.032;2023-05-01T13:24:53;13.40;83.90
37322;DHT22;23697;48.684;9.032;2023-05-01T13:27:21;13.20;84.00
37322;DHT22;23697;48.684;9.032;2023-05-01T13:29:50;13.10;84.20
37322;DHT22;23697;48.684;9.032;2023-05-01T13:32:18;13.10;84.50
37322;DHT22;23697;48.684;9.032;2023-05-01T13:34:45;13.10;84.80
37322;DHT22;23697;48.684;9.032;2023-05-01T13:37:12;13.10;84.40
37322;DHT22;23697;48.684;9.032;2023-05-01T13:39:39;13.00;84.60
37322;DHT22;23697;48.684;9.032;2023-05-01T13:42:06;13.00;85.00
37322;DHT22;23697;48.684;9.032;2023-05-01T13:44:38;12.90;85.30
37322;DHT22;23697;48.684;9.032;2023-05-01T13:47:07;12.90;85.60
37322;DHT22;23697;48.684;9.032;2023-05-01T13:49:34;13.00;85.80
37322;DHT22;23697;48.684;9.032;2023-05-01T13:52:05;13.10;85.90
37322;DHT22;23697;48.684;9.032;2023-05-01T13:54:32;13.10;85.70
37322;DHT22;23697;48.684;9.032;2023-05-01T13:56:59;13.30;85.20
37322;DHT22;23697;48.684;9.032;2023-05-01T13:59:35;13.30;85.00
37322;DHT22;23697;48.684;9.032;2023-05-01T14:02:04;13.40;84.80
37322;DHT22;23697;48.684;9.032;2023-05-01T14:04:37;13.50;85.10
37322;DHT22;23697;48.684;9.032;2023-05-01T14:07:05;14.00;85.90
37322;DHT22;23697;48.684;9.032;2023-05-01T14:09:34;14.40;85.30
37322;DHT22;23697;48.684;9.032;2023-05-01T14:12:00;14.70;83.90
37322;DHT22;23697;48.684;9.032;2023-05-01T14:14:27;15.00;83.30
37322;DHT22;23697;48.684;9.032;2023-05-01T14:16:54;15.20;83.40
37322;DHT22;23697;48.684;9.032;2023-05-01T14:19:23;15.60;84.10
37322;DHT22;23697;48.684;9.032;2023-05-01T14:21:50;15.70;80.90
37322;DHT22;23697;48.684;9.032;2023-05-01T14:24:16;15.50;80.50
37322;DHT22;23697;48.684;9.032;2023-05-01T14:26:43;15.10;79.20
37322;DHT22;23697;48.684;9.032;2023-05-01T14:29:20;14.80;80.50
37322;DHT22;23697;48.684;9.032;2023-05-01T14:31:48;14.70;81.80
37322;DHT22;23697;48.684;9.032;2023-05-01T14:34:15;14.40;80.30
37322;DHT22;23697;48.684;9.032;2023-05-01T14:36:44;14.10;81.30
37322;DHT22;23697;48.684;9.032;2023-05-01T14:39:11;13.90;81.90
37322;DHT22;23697;48.684;9.032;2023-05-01T14:41:38;13.70;82.90
37322;DHT22;23697;48.684;9.032;2023-05-01T14:44:07;13.60;83.10
37322;DHT22;23697;48.684;9.032;2023-05-01T14:46:36;13.60;83.70
37322;DHT22;23697;48.684;9.032;2023-05-01T14:49:09;13.60;84.20
37322;DHT22;23697;48.684;9.032;2023-05-01T14:51:36;13.50;84.70
37322;DHT22;23697;48.684;9.032;2023-05-01T14:54:09;13.40;82.20
37322;DHT22;23697;48.684;9.032;2023-05-01T14:56:35;13.00;82.30
37322;DHT22;23697;48.684;9.032;2023-05-01T14:59:02;12.80;82.70
37322;DHT22;23697;48.684;9.032;2023-05-01T15:01:29;12.60;82.70
37322;DHT22;23697;48.684;9.032;2023-05-01T15:03:56;12.50;83.10
37322;DHT22;23697;48.684;9.032;2023-05-01T15:06:22;12.20;83.70
37322;DHT22;23697;48.684;9.032;2023-05-01T15:08:50;12.10;84.70
37322;DHT22;23697;48.684;9.032;2023-05-01T15:11:18;12.10;84.90
37322;DHT22;23697;48.684;9.032;2023-05-01T15:13:45;12.00;85.60
37322;DHT22;23697;48.684;9.032;2023-05-01T15:16:13;11.90;86.10
37322;DHT22;23697;48.684;9.032;2023-05-01T15:18:40;11.80;86.30
37322;DHT22;23697;48.684;9.032;2023-05-01T15:21:07;11.80;86.80
37322;DHT22;23697;48.684;9.032;2023-05-01T15:23:34;11.80;87.00
37322;DHT22;23697;48.684;9.032;2023-05-01T15:26:01;11.80;87.10
37322;DHT22;23697;48.684;9.032;2023-05-01T15:28:29;11.70;87.00
37322;DHT22;23697;48.684;9.032;2023-05-01T15:30:56;11.70;86.90
37322;DHT22;23697;48.684;9.032;2023-05-01T15:33:23;11.80;87.30
37322;DHT22;23697;48.684;9.032;2023-05-01T15:35:50;12.10;87.50
37322;DHT22;23697;48.684;9.032;2023-05-01T15:38:17;12.50;87.80
37322;DHT22;23697;48.684;9.032;2023-05-01T15:40:44;12.80;87.90
37322;DHT22;23697;48.684;9.032;2023-05-01T15:43:11;13.30;87.80
37322;DHT22;23697;48.684;9.032;2023-05-01T15:45:39;13.60;87.30
37322;DHT22;23697;48.684;9.032;2023-05-01T15:48:07;13.80;86.90
37322;DHT22;23697;48.684;9.032;2023-05-01T15:50:34;13.80;86.00
37322;DHT22;23697;48.684;9.032;2023-05-01T15:53:00;13.90;86.00
37322;DHT22;23697;48.684;9.032;2023-05-01T15:55:27;13.70;85.80
37322;DHT22;23697;48.684;9.032;2023-05-01T15:57:54;13.60;85.50
37322;DHT22;23697;48.684;9.032;2023-05-01T16:00:21;13.30;84.80
37322;DHT22;23697;48.684;9.032;2023-05-01T16:02:49;13.10;84.80
37322;DHT22;23697;48.684;9.032;2023-05-01T16:05:17;13.10;85.20
37322;DHT22;23697;48.684;9.032;2023-05-01T16:07:45;13.10;85.70
37322;DHT22;23697;48.684;9.032;2023-05-01T16:10:13;13.10;86.00